• Join FlightAware (Why Join?)
  • Login
  • US Flag 
05:58AM EDT


 

Airport Tracker/Info


-or-


 

Live Flight TrackerFlight Track Log ✈ DAL907 ✈ 07-May-2013 ✈ KATL - KBNA

Flight Track Log - Related Links

Times and Time Zones

All times are in EDT time to prevent confusion due to time zone crossing. See the DAL907 flight status page for this flight to view local times or setup timezone preferences in your user account.

Time Position Orientation Groundspeed Altitude Reporting Facility
EDT Latitude Longitude Course Direction KTS MPH feet Rate Location/Type
03:18PM 33.6667 -84.5000 342° North 214 246 3,600  Level Atlanta TRACON
03:19PM 33.6833 -84.5667 287° West 262 302 6,500 2,100 Climbing Atlanta TRACON
03:20PM 33.8756 -84.5667 North  Level FlightAware Approximate
03:21PM 33.9794 -84.6050 342° North  Level FlightAware Approximate
03:21PM 33.8597 -84.5842 355° North 285 328 10,500  Level Atlanta Center
03:22PM 34.0828 -84.6463 342° North  Level FlightAware Approximate
03:22PM 33.9558 -84.6047 350° North 321 369 12,200  Level Atlanta Center
03:23PM 34.1861 -84.6878 342° North  Level FlightAware Approximate
03:23PM 34.0433 -84.6381 342° North 353 406 14,700  Level Atlanta Center
03:24PM 34.1475 -84.6739 344° North 379 436 17,400 2,640 Climbing Atlanta Center
03:25PM 34.2536 -84.7172 341° North 391 450 20,000 2,400 Climbing Atlanta Center
03:26PM 34.3533 -84.7861 330° Northwest 398 458 22,300 2,040 Climbing Atlanta Center
03:27PM 34.4511 -84.8625 327° Northwest 411 473 24,100 1,800 Climbing Atlanta Center
03:28PM 34.5611 -84.9417 329° Northwest 421 484 26,000 900 Climbing Atlanta Center
03:29PM 34.6606 -85.0186 328° Northwest 421 484 26,000  Level Atlanta Center
03:30PM 34.7478 -85.0878 327° Northwest 415 478 26,000  Level Atlanta Center
03:31PM 34.8472 -85.1650 327° Northwest 415 478 26,000  Level Atlanta Center
03:32PM 34.9447 -85.2397 328° Northwest 415 478 26,000 -660 Level Atlanta Center
03:35PM 35.1653 -85.4142 327° Northwest 417 480 24,000 -960 Descending Memphis Center
03:36PM 35.2467 -85.5164 314° West 412 474 23,000 -1,500 Descending Memphis Center
03:37PM 35.3233 -85.6161 313° West 412 474 21,100 -1,740 Descending Memphis Center
03:38PM 35.3981 -85.7111 314° West 406 467 19,600 -1,620 Descending Memphis Center
03:39PM 35.4683 -85.8067 312° West 391 450 17,900 -1,680 Descending Memphis Center
03:40PM 35.5403 -85.8972 314° West 386 444 16,300 -1,980 Descending Memphis Center
03:41PM 35.6061 -85.9881 312° West 372 428 14,000 -2,160 Descending Memphis Center
03:42PM 35.6697 -86.0792 311° West 366 421 12,000 -1,920 Descending Memphis Center
03:43PM 35.7231 -86.1736 305° West 347 399 10,200 -1,380 Descending Memphis Center
03:44PM 35.7656 -86.2586 302° West 315 362 9,300 -1,380 Descending Memphis Center
03:45PM 35.8097 -86.3331 306° West 286 329 7,500 -1,560 Descending Memphis Center
03:46PM 35.8519 -86.4131 303° West 276 318 6,200 -1,260 Descending Memphis Center
03:48PM 35.9336 -86.5603 304° West 266 306 3,800 -1,260 Descending Memphis Center
03:49PM 35.9733 -86.6328 304° West 266 306 2,500 -1,320 Descending Memphis Center